sensor_id;sensor_type;location;lat;lon;timestamp;P1;durP1;ratioP1;P2;durP2;ratioP2
27145;SDS011;17980;51.744;7.190;2023-08-30T00:02:07;4.63;;;4.23;;
27145;SDS011;17980;51.744;7.190;2023-08-30T00:04:35;4.07;;;3.77;;
27145;SDS011;17980;51.744;7.190;2023-08-30T00:07:02;5.60;;;4.13;;
27145;SDS011;17980;51.744;7.190;2023-08-30T00:09:30;5.10;;;4.47;;
27145;SDS011;17980;51.744;7.190;2023-08-30T00:12:07;4.57;;;3.90;;
27145;SDS011;17980;51.744;7.190;2023-08-30T00:14:34;5.40;;;4.30;;
27145;SDS011;17980;51.744;7.190;2023-08-30T00:17:01;4.90;;;4.43;;
27145;SDS011;17980;51.744;7.190;2023-08-30T00:19:29;4.93;;;4.43;;
27145;SDS011;17980;51.744;7.190;2023-08-30T00:22:08;4.97;;;4.47;;
27145;SDS011;17980;51.744;7.190;2023-08-30T00:24:35;4.73;;;4.30;;
27145;SDS011;17980;51.744;7.190;2023-08-30T00:27:03;5.70;;;4.93;;
27145;SDS011;17980;51.744;7.190;2023-08-30T00:29:31;4.47;;;4.07;;
27145;SDS011;17980;51.744;7.190;2023-08-30T00:32:12;4.40;;;4.00;;
27145;SDS011;17980;51.744;7.190;2023-08-30T00:34:40;6.83;;;3.87;;
27145;SDS011;17980;51.744;7.190;2023-08-30T00:37:07;4.30;;;3.83;;
27145;SDS011;17980;51.744;7.190;2023-08-30T00:39:35;4.30;;;3.83;;
27145;SDS011;17980;51.744;7.190;2023-08-30T00:42:14;4.17;;;3.77;;
27145;SDS011;17980;51.744;7.190;2023-08-30T00:47:10;4.07;;;3.77;;
27145;SDS011;17980;51.744;7.190;2023-08-30T00:49:38;8.43;;;4.43;;
27145;SDS011;17980;51.744;7.190;2023-08-30T00:52:07;4.43;;;4.03;;
27145;SDS011;17980;51.744;7.190;2023-08-30T00:54:45;3.93;;;3.60;;
27145;SDS011;17980;51.744;7.190;2023-08-30T00:57:13;6.87;;;4.37;;
27145;SDS011;17980;51.744;7.190;2023-08-30T00:59:49;5.10;;;4.10;;
27145;SDS011;17980;51.744;7.190;2023-08-30T01:02:18;8.37;;;5.03;;
27145;SDS011;17980;51.744;7.190;2023-08-30T01:04:45;5.23;;;4.83;;
27145;SDS011;17980;51.744;7.190;2023-08-30T01:07:25;5.73;;;5.10;;
27145;SDS011;17980;51.744;7.190;2023-08-30T01:09:53;6.10;;;5.50;;
27145;SDS011;17980;51.744;7.190;2023-08-30T01:12:22;9.13;;;4.70;;
27145;SDS011;17980;51.744;7.190;2023-08-30T01:15:00;6.60;;;6.03;;
27145;SDS011;17980;51.744;7.190;2023-08-30T01:17:31;6.43;;;5.83;;
27145;SDS011;17980;51.744;7.190;2023-08-30T01:20:11;6.90;;;6.20;;
27145;SDS011;17980;51.744;7.190;2023-08-30T01:22:45;5.93;;;5.40;;
27145;SDS011;17980;51.744;7.190;2023-08-30T01:25:24;6.20;;;5.67;;
27145;SDS011;17980;51.744;7.190;2023-08-30T01:28:05;6.67;;;5.60;;
27145;SDS011;17980;51.744;7.190;2023-08-30T01:30:33;6.40;;;5.90;;
27145;SDS011;17980;51.744;7.190;2023-08-30T01:33:03;10.93;;;6.60;;
27145;SDS011;17980;51.744;7.190;2023-08-30T01:35:32;8.27;;;6.00;;
27145;SDS011;17980;51.744;7.190;2023-08-30T01:38:09;6.90;;;6.30;;
27145;SDS011;17980;51.744;7.190;2023-08-30T01:40:39;7.33;;;6.63;;
27145;SDS011;17980;51.744;7.190;2023-08-30T01:45:44;7.40;;;6.80;;
27145;SDS011;17980;51.744;7.190;2023-08-30T01:48:12;6.83;;;6.27;;
27145;SDS011;17980;51.744;7.190;2023-08-30T01:50:49;8.20;;;7.50;;
27145;SDS011;17980;51.744;7.190;2023-08-30T01:53:17;8.23;;;7.43;;
27145;SDS011;17980;51.744;7.190;2023-08-30T01:55:46;8.93;;;8.13;;
27145;SDS011;17980;51.744;7.190;2023-08-30T01:58:23;9.17;;;8.37;;
27145;SDS011;17980;51.744;7.190;2023-08-30T02:00:50;9.00;;;8.03;;
27145;SDS011;17980;51.744;7.190;2023-08-30T02:03:17;10.10;;;8.33;;
27145;SDS011;17980;51.744;7.190;2023-08-30T02:05:50;9.43;;;8.53;;
27145;SDS011;17980;51.744;7.190;2023-08-30T02:08:21;10.07;;;9.10;;
27145;SDS011;17980;51.744;7.190;2023-08-30T02:11:01;9.53;;;8.70;;
27145;SDS011;17980;51.744;7.190;2023-08-30T02:13:31;11.30;;;9.90;;
27145;SDS011;17980;51.744;7.190;2023-08-30T02:16:00;11.00;;;8.63;;
27145;SDS011;17980;51.744;7.190;2023-08-30T02:18:37;10.50;;;8.73;;
27145;SDS011;17980;51.744;7.190;2023-08-30T02:21:06;12.30;;;8.33;;
27145;SDS011;17980;51.744;7.190;2023-08-30T02:23:33;9.57;;;8.77;;
27145;SDS011;17980;51.744;7.190;2023-08-30T02:26:01;11.27;;;8.53;;
27145;SDS011;17980;51.744;7.190;2023-08-30T02:28:38;10.33;;;9.43;;
27145;SDS011;17980;51.744;7.190;2023-08-30T02:31:06;11.50;;;9.90;;
27145;SDS011;17980;51.744;7.190;2023-08-30T02:33:33;10.23;;;9.30;;
27145;SDS011;17980;51.744;7.190;2023-08-30T02:36:03;10.50;;;9.60;;
27145;SDS011;17980;51.744;7.190;2023-08-30T02:38:40;9.87;;;8.97;;
27145;SDS011;17980;51.744;7.190;2023-08-30T02:41:07;9.67;;;8.83;;
27145;SDS011;17980;51.744;7.190;2023-08-30T02:43:35;10.23;;;9.23;;
27145;SDS011;17980;51.744;7.190;2023-08-30T02:46:03;13.97;;;10.20;;
27145;SDS011;17980;51.744;7.190;2023-08-30T02:48:40;13.47;;;9.70;;
27145;SDS011;17980;51.744;7.190;2023-08-30T02:51:07;12.63;;;9.77;;
27145;SDS011;17980;51.744;7.190;2023-08-30T02:53:35;12.10;;;10.20;;
27145;SDS011;17980;51.744;7.190;2023-08-30T02:56:02;11.40;;;10.30;;
27145;SDS011;17980;51.744;7.190;2023-08-30T02:58:39;11.47;;;10.27;;
27145;SDS011;17980;51.744;7.190;2023-08-30T03:01:07;11.93;;;10.73;;
27145;SDS011;17980;51.744;7.190;2023-08-30T03:03:50;12.63;;;11.43;;
27145;SDS011;17980;51.744;7.190;2023-08-30T03:06:18;11.87;;;10.87;;
27145;SDS011;17980;51.744;7.190;2023-08-30T03:08:54;12.23;;;11.03;;
27145;SDS011;17980;51.744;7.190;2023-08-30T03:11:22;13.20;;;11.30;;
27145;SDS011;17980;51.744;7.190;2023-08-30T03:13:49;12.70;;;11.43;;
27145;SDS011;17980;51.744;7.190;2023-08-30T03:16:16;11.43;;;10.23;;
27145;SDS011;17980;51.744;7.190;2023-08-30T03:18:53;12.60;;;11.30;;
27145;SDS011;17980;51.744;7.190;2023-08-30T03:21:21;14.03;;;12.07;;
27145;SDS011;17980;51.744;7.190;2023-08-30T03:23:48;13.93;;;12.73;;
27145;SDS011;17980;51.744;7.190;2023-08-30T03:26:16;13.17;;;11.80;;
27145;SDS011;17980;51.744;7.190;2023-08-30T03:28:53;12.10;;;10.90;;
27145;SDS011;17980;51.744;7.190;2023-08-30T03:31:20;11.63;;;10.43;;
27145;SDS011;17980;51.744;7.190;2023-08-30T03:33:48;12.00;;;10.80;;
27145;SDS011;17980;51.744;7.190;2023-08-30T03:36:16;13.63;;;12.17;;
27145;SDS011;17980;51.744;7.190;2023-08-30T03:38:54;49.03;;;31.77;;
27145;SDS011;17980;51.744;7.190;2023-08-30T03:41:21;33.00;;;23.10;;
27145;SDS011;17980;51.744;7.190;2023-08-30T03:43:49;41.17;;;31.03;;
27145;SDS011;17980;51.744;7.190;2023-08-30T03:46:16;26.17;;;22.93;;
27145;SDS011;17980;51.744;7.190;2023-08-30T03:48:53;19.13;;;17.13;;
27145;SDS011;17980;51.744;7.190;2023-08-30T03:51:20;19.30;;;16.33;;
27145;SDS011;17980;51.744;7.190;2023-08-30T03:53:47;14.63;;;13.23;;
27145;SDS011;17980;51.744;7.190;2023-08-30T03:56:15;16.80;;;15.07;;
27145;SDS011;17980;51.744;7.190;2023-08-30T03:58:52;14.57;;;13.13;;
27145;SDS011;17980;51.744;7.190;2023-08-30T04:01:19;18.03;;;12.70;;
27145;SDS011;17980;51.744;7.190;2023-08-30T04:03:46;14.43;;;12.23;;
27145;SDS011;17980;51.744;7.190;2023-08-30T04:06:14;13.50;;;11.43;;
27145;SDS011;17980;51.744;7.190;2023-08-30T04:08:51;11.53;;;10.43;;
27145;SDS011;17980;51.744;7.190;2023-08-30T04:11:18;13.87;;;11.77;;
27145;SDS011;17980;51.744;7.190;2023-08-30T04:13:45;13.90;;;12.03;;
27145;SDS011;17980;51.744;7.190;2023-08-30T04:16:13;13.37;;;11.73;;
27145;SDS011;17980;51.744;7.190;2023-08-30T04:18:49;13.17;;;11.93;;
27145;SDS011;17980;51.744;7.190;2023-08-30T04:21:17;13.07;;;11.87;;
27145;SDS011;17980;51.744;7.190;2023-08-30T04:23:44;15.97;;;12.93;;
27145;SDS011;17980;51.744;7.190;2023-08-30T04:26:11;14.73;;;11.93;;
27145;SDS011;17980;51.744;7.190;2023-08-30T04:28:48;16.63;;;13.33;;
27145;SDS011;17980;51.744;7.190;2023-08-30T04:33:52;29.80;;;26.33;;
27145;SDS011;17980;51.744;7.190;2023-08-30T04:36:21;68.77;;;54.90;;
27145;SDS011;17980;51.744;7.190;2023-08-30T04:39:04;32.30;;;26.80;;
27145;SDS011;17980;51.744;7.190;2023-08-30T04:41:32;15.90;;;13.90;;
27145;SDS011;17980;51.744;7.190;2023-08-30T04:43:59;15.37;;;13.97;;
27145;SDS011;17980;51.744;7.190;2023-08-30T04:46:26;15.70;;;14.20;;
27145;SDS011;17980;51.744;7.190;2023-08-30T04:49:09;17.57;;;14.37;;
27145;SDS011;17980;51.744;7.190;2023-08-30T04:51:37;18.70;;;16.90;;
27145;SDS011;17980;51.744;7.190;2023-08-30T04:54:04;19.63;;;17.53;;
27145;SDS011;17980;51.744;7.190;2023-08-30T04:56:32;19.17;;;17.40;;
27145;SDS011;17980;51.744;7.190;2023-08-30T04:59:09;19.23;;;17.27;;
27145;SDS011;17980;51.744;7.190;2023-08-30T05:01:36;17.93;;;16.23;;
27145;SDS011;17980;51.744;7.190;2023-08-30T05:04:05;18.77;;;16.83;;
27145;SDS011;17980;51.744;7.190;2023-08-30T05:06:33;17.57;;;15.60;;
27145;SDS011;17980;51.744;7.190;2023-08-30T05:09:10;16.23;;;14.63;;
27145;SDS011;17980;51.744;7.190;2023-08-30T05:11:37;18.60;;;15.13;;
27145;SDS011;17980;51.744;7.190;2023-08-30T05:14:04;16.10;;;14.60;;
27145;SDS011;17980;51.744;7.190;2023-08-30T05:16:32;16.63;;;13.57;;
27145;SDS011;17980;51.744;7.190;2023-08-30T05:19:09;17.07;;;15.10;;
27145;SDS011;17980;51.744;7.190;2023-08-30T05:21:36;18.77;;;14.97;;
27145;SDS011;17980;51.744;7.190;2023-08-30T05:24:04;19.17;;;14.57;;
27145;SDS011;17980;51.744;7.190;2023-08-30T05:26:33;16.37;;;14.30;;
27145;SDS011;17980;51.744;7.190;2023-08-30T05:29:10;18.97;;;15.60;;
27145;SDS011;17980;51.744;7.190;2023-08-30T05:31:37;19.17;;;15.27;;
27145;SDS011;17980;51.744;7.190;2023-08-30T05:34:04;19.90;;;16.90;;
27145;SDS011;17980;51.744;7.190;2023-08-30T05:36:32;20.63;;;16.63;;
27145;SDS011;17980;51.744;7.190;2023-08-30T05:39:08;18.60;;;16.63;;
27145;SDS011;17980;51.744;7.190;2023-08-30T05:41:36;19.57;;;17.57;;
27145;SDS011;17980;51.744;7.190;2023-08-30T05:44:04;19.27;;;17.27;;
27145;SDS011;17980;51.744;7.190;2023-08-30T05:46:33;18.50;;;16.47;;
27145;SDS011;17980;51.744;7.190;2023-08-30T05:49:13;20.77;;;18.03;;
27145;SDS011;17980;51.744;7.190;2023-08-30T05:51:41;20.87;;;16.90;;
27145;SDS011;17980;51.744;7.190;2023-08-30T05:54:08;22.93;;;17.77;;
27145;SDS011;17980;51.744;7.190;2023-08-30T05:56:35;20.47;;;18.37;;
27145;SDS011;17980;51.744;7.190;2023-08-30T05:59:12;18.43;;;16.57;;
27145;SDS011;17980;51.744;7.190;2023-08-30T06:01:40;20.83;;;16.63;;
27145;SDS011;17980;51.744;7.190;2023-08-30T06:04:07;20.17;;;17.90;;
27145;SDS011;17980;51.744;7.190;2023-08-30T06:06:34;19.13;;;17.00;;
27145;SDS011;17980;51.744;7.190;2023-08-30T06:09:11;24.43;;;19.03;;
27145;SDS011;17980;51.744;7.190;2023-08-30T06:14:15;22.27;;;17.30;;
27145;SDS011;17980;51.744;7.190;2023-08-30T06:16:42;19.17;;;16.47;;
27145;SDS011;17980;51.744;7.190;2023-08-30T06:19:19;19.43;;;17.27;;
27145;SDS011;17980;51.744;7.190;2023-08-30T06:21:46;20.37;;;17.73;;
27145;SDS011;17980;51.744;7.190;2023-08-30T06:24:13;19.60;;;17.53;;
27145;SDS011;17980;51.744;7.190;2023-08-30T06:26:41;21.73;;;18.17;;
27145;SDS011;17980;51.744;7.190;2023-08-30T06:29:18;20.07;;;18.07;;
27145;SDS011;17980;51.744;7.190;2023-08-30T06:31:45;27.93;;;17.40;;
27145;SDS011;17980;51.744;7.190;2023-08-30T06:34:13;21.47;;;16.80;;
27145;SDS011;17980;51.744;7.190;2023-08-30T06:36:40;26.17;;;17.87;;
27145;SDS011;17980;51.744;7.190;2023-08-30T06:39:17;19.30;;;16.57;;
27145;SDS011;17980;51.744;7.190;2023-08-30T06:41:44;19.47;;;17.37;;
27145;SDS011;17980;51.744;7.190;2023-08-30T06:44:27;25.47;;;19.07;;
27145;SDS011;17980;51.744;7.190;2023-08-30T06:46:55;19.80;;;16.13;;
27145;SDS011;17980;51.744;7.190;2023-08-30T06:49:32;22.50;;;17.13;;
27145;SDS011;17980;51.744;7.190;2023-08-30T06:52:00;22.53;;;18.90;;
27145;SDS011;17980;51.744;7.190;2023-08-30T06:54:29;24.20;;;18.47;;
27145;SDS011;17980;51.744;7.190;2023-08-30T06:56:57;19.97;;;17.57;;
27145;SDS011;17980;51.744;7.190;2023-08-30T06:59:25;20.77;;;17.40;;
27145;SDS011;17980;51.744;7.190;2023-08-30T07:01:52;21.23;;;15.93;;
27145;SDS011;17980;51.744;7.190;2023-08-30T07:04:20;18.13;;;15.70;;
27145;SDS011;17980;51.744;7.190;2023-08-30T07:06:57;17.00;;;14.97;;
27145;SDS011;17980;51.744;7.190;2023-08-30T07:09:24;16.00;;;14.27;;
27145;SDS011;17980;51.744;7.190;2023-08-30T07:11:54;18.17;;;16.30;;
27145;SDS011;17980;51.744;7.190;2023-08-30T07:14:21;14.87;;;13.47;;
27145;SDS011;17980;51.744;7.190;2023-08-30T07:16:58;20.57;;;14.53;;
27145;SDS011;17980;51.744;7.190;2023-08-30T07:19:25;16.07;;;14.23;;
27145;SDS011;17980;51.744;7.190;2023-08-30T07:21:53;16.07;;;14.53;;
27145;SDS011;17980;51.744;7.190;2023-08-30T07:24:20;17.30;;;14.70;;
27145;SDS011;17980;51.744;7.190;2023-08-30T07:26:57;16.37;;;14.43;;
27145;SDS011;17980;51.744;7.190;2023-08-30T07:29:24;16.97;;;14.13;;
27145;SDS011;17980;51.744;7.190;2023-08-30T07:31:52;15.13;;;13.57;;
27145;SDS011;17980;51.744;7.190;2023-08-30T07:34:20;15.80;;;14.17;;
27145;SDS011;17980;51.744;7.190;2023-08-30T07:36:57;17.93;;;13.80;;
27145;SDS011;17980;51.744;7.190;2023-08-30T07:39:25;15.97;;;12.07;;
27145;SDS011;17980;51.744;7.190;2023-08-30T07:42:02;13.00;;;11.27;;
27145;SDS011;17980;51.744;7.190;2023-08-30T07:44:29;14.47;;;10.90;;
27145;SDS011;17980;51.744;7.190;2023-08-30T07:47:06;11.57;;;9.90;;
27145;SDS011;17980;51.744;7.190;2023-08-30T07:49:34;11.73;;;10.53;;
27145;SDS011;17980;51.744;7.190;2023-08-30T07:52:01;19.77;;;10.73;;
27145;SDS011;17980;51.744;7.190;2023-08-30T07:54:29;13.23;;;10.93;;
27145;SDS011;17980;51.744;7.190;2023-08-30T07:57:12;12.13;;;10.90;;
27145;SDS011;17980;51.744;7.190;2023-08-30T07:59:40;11.23;;;9.67;;
27145;SDS011;17980;51.744;7.190;2023-08-30T08:02:17;15.27;;;10.87;;
27145;SDS011;17980;51.744;7.190;2023-08-30T08:04:44;14.30;;;10.53;;
27145;SDS011;17980;51.744;7.190;2023-08-30T08:07:21;12.13;;;10.47;;
27145;SDS011;17980;51.744;7.190;2023-08-30T08:09:48;12.10;;;9.77;;
27145;SDS011;17980;51.744;7.190;2023-08-30T08:12:15;12.60;;;9.73;;
27145;SDS011;17980;51.744;7.190;2023-08-30T08:14:52;10.47;;;9.20;;
27145;SDS011;17980;51.744;7.190;2023-08-30T08:17:20;10.63;;;9.67;;
27145;SDS011;17980;51.744;7.190;2023-08-30T08:19:56;11.33;;;9.77;;
27145;SDS011;17980;51.744;7.190;2023-08-30T08:22:24;9.90;;;8.90;;
27145;SDS011;17980;51.744;7.190;2023-08-30T08:24:51;10.40;;;9.03;;
27145;SDS011;17980;51.744;7.190;2023-08-30T08:27:28;9.97;;;8.60;;
27145;SDS011;17980;51.744;7.190;2023-08-30T08:29:56;10.80;;;9.70;;
27145;SDS011;17980;51.744;7.190;2023-08-30T08:32:24;9.47;;;8.53;;
27145;SDS011;17980;51.744;7.190;2023-08-30T08:34:51;9.37;;;8.50;;
27145;SDS011;17980;51.744;7.190;2023-08-30T08:37:19;10.37;;;8.43;;
27145;SDS011;17980;51.744;7.190;2023-08-30T08:39:57;10.30;;;8.23;;
27145;SDS011;17980;51.744;7.190;2023-08-30T08:42:24;10.53;;;8.37;;
27145;SDS011;17980;51.744;7.190;2023-08-30T08:44:54;11.03;;;7.60;;
27145;SDS011;17980;51.744;7.190;2023-08-30T08:47:23;12.87;;;7.70;;
27145;SDS011;17980;51.744;7.190;2023-08-30T08:50:00;8.40;;;7.60;;
27145;SDS011;17980;51.744;7.190;2023-08-30T08:52:29;11.93;;;7.23;;
27145;SDS011;17980;51.744;7.190;2023-08-30T08:54:57;7.10;;;6.27;;
27145;SDS011;17980;51.744;7.190;2023-08-30T08:57:26;8.67;;;6.17;;
27145;SDS011;17980;51.744;7.190;2023-08-30T09:00:03;12.53;;;7.07;;
27145;SDS011;17980;51.744;7.190;2023-08-30T09:02:33;10.97;;;6.30;;
27145;SDS011;17980;51.744;7.190;2023-08-30T09:05:00;8.70;;;6.23;;
27145;SDS011;17980;51.744;7.190;2023-08-30T09:07:30;10.00;;;5.60;;
27145;SDS011;17980;51.744;7.190;2023-08-30T09:10:08;9.67;;;4.83;;
27145;SDS011;17980;51.744;7.190;2023-08-30T09:12:36;7.67;;;5.13;;
27145;SDS011;17980;51.744;7.190;2023-08-30T09:15:04;6.20;;;4.67;;
27145;SDS011;17980;51.744;7.190;2023-08-30T09:17:36;9.20;;;4.20;;
27145;SDS011;17980;51.744;7.190;2023-08-30T09:20:14;9.17;;;5.07;;
27145;SDS011;17980;51.744;7.190;2023-08-30T09:22:43;6.87;;;4.07;;
27145;SDS011;17980;51.744;7.190;2023-08-30T09:25:21;9.70;;;4.50;;
27145;SDS011;17980;51.744;7.190;2023-08-30T09:30:21;11.47;;;4.30;;
27145;SDS011;17980;51.744;7.190;2023-08-30T09:32:49;9.50;;;4.53;;
27145;SDS011;17980;51.744;7.190;2023-08-30T09:35:16;8.03;;;4.57;;
27145;SDS011;17980;51.744;7.190;2023-08-30T09:37:44;4.97;;;4.27;;
27145;SDS011;17980;51.744;7.190;2023-08-30T09:40:21;9.67;;;4.37;;
27145;SDS011;17980;51.744;7.190;2023-08-30T09:42:49;13.03;;;5.17;;
27145;SDS011;17980;51.744;7.190;2023-08-30T09:45:21;11.67;;;4.77;;
27145;SDS011;17980;51.744;7.190;2023-08-30T09:47:49;8.93;;;4.33;;
27145;SDS011;17980;51.744;7.190;2023-08-30T09:50:26;7.37;;;4.30;;
27145;SDS011;17980;51.744;7.190;2023-08-30T09:52:55;8.07;;;4.17;;
27145;SDS011;17980;51.744;7.190;2023-08-30T09:55:23;9.93;;;4.03;;
27145;SDS011;17980;51.744;7.190;2023-08-30T09:57:51;8.57;;;4.23;;
27145;SDS011;17980;51.744;7.190;2023-08-30T10:00:29;4.60;;;4.20;;
27145;SDS011;17980;51.744;7.190;2023-08-30T10:02:58;5.67;;;4.53;;
27145;SDS011;17980;51.744;7.190;2023-08-30T10:05:27;4.90;;;4.33;;
27145;SDS011;17980;51.744;7.190;2023-08-30T10:07:55;8.50;;;4.50;;
27145;SDS011;17980;51.744;7.190;2023-08-30T10:10:32;6.20;;;5.60;;
27145;SDS011;17980;51.744;7.190;2023-08-30T10:13:01;15.13;;;7.07;;
27145;SDS011;17980;51.744;7.190;2023-08-30T10:15:30;7.73;;;6.17;;
27145;SDS011;17980;51.744;7.190;2023-08-30T10:18:00;7.20;;;5.73;;
27145;SDS011;17980;51.744;7.190;2023-08-30T10:20:37;7.17;;;6.40;;
27145;SDS011;17980;51.744;7.190;2023-08-30T10:23:05;6.97;;;6.27;;
27145;SDS011;17980;51.744;7.190;2023-08-30T10:25:34;6.93;;;6.17;;
27145;SDS011;17980;51.744;7.190;2023-08-30T10:28:11;7.10;;;6.00;;
27145;SDS011;17980;51.744;7.190;2023-08-30T10:30:39;12.57;;;7.27;;
27145;SDS011;17980;51.744;7.190;2023-08-30T10:33:16;8.13;;;7.43;;
27145;SDS011;17980;51.744;7.190;2023-08-30T10:35:47;8.30;;;7.07;;
27145;SDS011;17980;51.744;7.190;2023-08-30T10:38:24;9.30;;;8.00;;
27145;SDS011;17980;51.744;7.190;2023-08-30T10:41:06;8.87;;;7.87;;
27145;SDS011;17980;51.744;7.190;2023-08-30T10:43:34;11.63;;;8.47;;
27145;SDS011;17980;51.744;7.190;2023-08-30T10:46:03;9.63;;;8.00;;
27145;SDS011;17980;51.744;7.190;2023-08-30T10:48:36;10.57;;;9.60;;
27145;SDS011;17980;51.744;7.190;2023-08-30T10:51:34;11.17;;;10.17;;
27145;SDS011;17980;51.744;7.190;2023-08-30T10:54:05;10.83;;;8.83;;
27145;SDS011;17980;51.744;7.190;2023-08-30T10:56:45;9.30;;;7.97;;
27145;SDS011;17980;51.744;7.190;2023-08-30T10:59:23;8.40;;;7.30;;
27145;SDS011;17980;51.744;7.190;2023-08-30T11:01:51;8.17;;;7.37;;
27145;SDS011;17980;51.744;7.190;2023-08-30T11:04:19;7.47;;;6.53;;
27145;SDS011;17980;51.744;7.190;2023-08-30T11:06:48;9.83;;;7.20;;
27145;SDS011;17980;51.744;7.190;2023-08-30T11:09:17;10.03;;;8.00;;
27145;SDS011;17980;51.744;7.190;2023-08-30T11:11:54;8.10;;;7.10;;
27145;SDS011;17980;51.744;7.190;2023-08-30T11:14:22;9.00;;;7.07;;
27145;SDS011;17980;51.744;7.190;2023-08-30T11:16:50;8.73;;;7.93;;
27145;SDS011;17980;51.744;7.190;2023-08-30T11:19:17;8.90;;;7.90;;
27145;SDS011;17980;51.744;7.190;2023-08-30T11:21:54;9.53;;;8.53;;
27145;SDS011;17980;51.744;7.190;2023-08-30T11:24:22;9.63;;;8.63;;
27145;SDS011;17980;51.744;7.190;2023-08-30T11:26:52;8.97;;;8.13;;
27145;SDS011;17980;51.744;7.190;2023-08-30T11:29:20;9.20;;;8.37;;
27145;SDS011;17980;51.744;7.190;2023-08-30T11:31:57;9.37;;;8.43;;
27145;SDS011;17980;51.744;7.190;2023-08-30T11:34:25;9.83;;;8.87;;
27145;SDS011;17980;51.744;7.190;2023-08-30T11:36:53;11.47;;;10.33;;
27145;SDS011;17980;51.744;7.190;2023-08-30T11:39:20;10.30;;;9.40;;
27145;SDS011;17980;51.744;7.190;2023-08-30T11:41:57;10.43;;;9.30;;
27145;SDS011;17980;51.744;7.190;2023-08-30T11:44:25;11.37;;;10.27;;
27145;SDS011;17980;51.744;7.190;2023-08-30T11:49:34;11.37;;;9.47;;
27145;SDS011;17980;51.744;7.190;2023-08-30T11:52:03;11.13;;;10.13;;
27145;SDS011;17980;51.744;7.190;2023-08-30T11:54:33;10.77;;;9.63;;
27145;SDS011;17980;51.744;7.190;2023-08-30T11:57:00;11.73;;;10.63;;
27145;SDS011;17980;51.744;7.190;2023-08-30T11:59:37;11.63;;;10.43;;
27145;SDS011;17980;51.744;7.190;2023-08-30T12:02:05;11.70;;;10.60;;
27145;SDS011;17980;51.744;7.190;2023-08-30T12:04:40;10.73;;;9.67;;
27145;SDS011;17980;51.744;7.190;2023-08-30T12:07:08;12.17;;;10.87;;
27145;SDS011;17980;51.744;7.190;2023-08-30T12:09:45;12.07;;;10.70;;
27145;SDS011;17980;51.744;7.190;2023-08-30T12:12:12;11.80;;;10.57;;
27145;SDS011;17980;51.744;7.190;2023-08-30T12:14:55;10.03;;;9.13;;
27145;SDS011;17980;51.744;7.190;2023-08-30T12:17:22;9.70;;;8.70;;
27145;SDS011;17980;51.744;7.190;2023-08-30T12:19:59;9.43;;;8.63;;
27145;SDS011;17980;51.744;7.190;2023-08-30T12:22:36;8.60;;;7.97;;
27145;SDS011;17980;51.744;7.190;2023-08-30T12:25:15;10.33;;;9.27;;
27145;SDS011;17980;51.744;7.190;2023-08-30T12:27:42;9.13;;;8.43;;
27145;SDS011;17980;51.744;7.190;2023-08-30T12:30:19;8.67;;;7.97;;
27145;SDS011;17980;51.744;7.190;2023-08-30T12:32:47;8.10;;;7.40;;
27145;SDS011;17980;51.744;7.190;2023-08-30T12:35:15;8.63;;;7.90;;
27145;SDS011;17980;51.744;7.190;2023-08-30T12:37:52;9.53;;;7.83;;
27145;SDS011;17980;51.744;7.190;2023-08-30T12:40:20;8.17;;;7.47;;
27145;SDS011;17980;51.744;7.190;2023-08-30T12:42:57;8.43;;;7.73;;
27145;SDS011;17980;51.744;7.190;2023-08-30T12:45:24;9.10;;;8.20;;
27145;SDS011;17980;51.744;7.190;2023-08-30T12:47:52;9.00;;;8.27;;
27145;SDS011;17980;51.744;7.190;2023-08-30T12:50:29;8.60;;;7.80;;
27145;SDS011;17980;51.744;7.190;2023-08-30T12:52:56;9.00;;;8.10;;
27145;SDS011;17980;51.744;7.190;2023-08-30T12:55:33;9.20;;;8.13;;
27145;SDS011;17980;51.744;7.190;2023-08-30T12:58:01;9.67;;;8.87;;
27145;SDS011;17980;51.744;7.190;2023-08-30T13:00:39;8.13;;;7.50;;
27145;SDS011;17980;51.744;7.190;2023-08-30T13:05:42;9.47;;;8.67;;
27145;SDS011;17980;51.744;7.190;2023-08-30T13:08:10;9.33;;;8.57;;
27145;SDS011;17980;51.744;7.190;2023-08-30T13:10:48;9.20;;;8.47;;
27145;SDS011;17980;51.744;7.190;2023-08-30T13:13:15;9.73;;;8.93;;
27145;SDS011;17980;51.744;7.190;2023-08-30T13:15:43;10.90;;;9.90;;
27145;SDS011;17980;51.744;7.190;2023-08-30T13:18:10;10.93;;;9.83;;
27145;SDS011;17980;51.744;7.190;2023-08-30T13:20:47;10.37;;;9.40;;
27145;SDS011;17980;51.744;7.190;2023-08-30T13:23:14;11.20;;;10.10;;
27145;SDS011;17980;51.744;7.190;2023-08-30T13:25:51;11.27;;;10.00;;
27145;SDS011;17980;51.744;7.190;2023-08-30T13:28:19;12.13;;;10.97;;
27145;SDS011;17980;51.744;7.190;2023-08-30T13:30:56;11.53;;;10.43;;
27145;SDS011;17980;51.744;7.190;2023-08-30T13:33:23;11.10;;;10.10;;
27145;SDS011;17980;51.744;7.190;2023-08-30T13:35:51;11.50;;;10.60;;
27145;SDS011;17980;51.744;7.190;2023-08-30T13:38:18;11.30;;;10.20;;
27145;SDS011;17980;51.744;7.190;2023-08-30T13:40:58;13.97;;;10.30;;
27145;SDS011;17980;51.744;7.190;2023-08-30T13:43:26;10.30;;;9.30;;
27145;SDS011;17980;51.744;7.190;2023-08-30T13:45:58;9.63;;;8.80;;
27145;SDS011;17980;51.744;7.190;2023-08-30T13:48:26;8.97;;;8.07;;
27145;SDS011;17980;51.744;7.190;2023-08-30T13:51:03;8.40;;;7.60;;
27145;SDS011;17980;51.744;7.190;2023-08-30T13:53:30;8.87;;;8.07;;
27145;SDS011;17980;51.744;7.190;2023-08-30T13:55:57;8.50;;;7.50;;
27145;SDS011;17980;51.744;7.190;2023-08-30T13:58:25;8.37;;;7.57;;
27145;SDS011;17980;51.744;7.190;2023-08-30T14:01:02;9.67;;;8.87;;
27145;SDS011;17980;51.744;7.190;2023-08-30T14:03:30;9.30;;;8.47;;
27145;SDS011;17980;51.744;7.190;2023-08-30T14:05:58;7.77;;;7.17;;
27145;SDS011;17980;51.744;7.190;2023-08-30T14:08:26;9.67;;;7.20;;
27145;SDS011;17980;51.744;7.190;2023-08-30T14:11:03;8.83;;;8.03;;
27145;SDS011;17980;51.744;7.190;2023-08-30T14:13:30;8.30;;;7.50;;
27145;SDS011;17980;51.744;7.190;2023-08-30T14:16:07;7.23;;;6.53;;
27145;SDS011;17980;51.744;7.190;2023-08-30T14:18:35;9.03;;;8.17;;
27145;SDS011;17980;51.744;7.190;2023-08-30T14:21:19;7.63;;;6.93;;
27145;SDS011;17980;51.744;7.190;2023-08-30T14:23:47;7.53;;;6.83;;
27145;SDS011;17980;51.744;7.190;2023-08-30T14:28:50;7.67;;;7.07;;
27145;SDS011;17980;51.744;7.190;2023-08-30T14:31:18;7.63;;;6.80;;
27145;SDS011;17980;51.744;7.190;2023-08-30T14:33:55;6.57;;;6.00;;
27145;SDS011;17980;51.744;7.190;2023-08-30T14:36:23;6.73;;;6.17;;
27145;SDS011;17980;51.744;7.190;2023-08-30T14:38:50;6.57;;;5.97;;
27145;SDS011;17980;51.744;7.190;2023-08-30T14:41:27;8.63;;;7.20;;
27145;SDS011;17980;51.744;7.190;2023-08-30T14:43:54;10.13;;;7.20;;
27145;SDS011;17980;51.744;7.190;2023-08-30T14:46:22;7.57;;;6.80;;
27145;SDS011;17980;51.744;7.190;2023-08-30T14:48:49;9.70;;;8.80;;
27145;SDS011;17980;51.744;7.190;2023-08-30T14:51:18;9.37;;;8.37;;
27145;SDS011;17980;51.744;7.190;2023-08-30T14:53:46;9.70;;;8.73;;
27145;SDS011;17980;51.744;7.190;2023-08-30T14:56:13;9.10;;;8.20;;
27145;SDS011;17980;51.744;7.190;2023-08-30T14:58:50;11.33;;;9.77;;
27145;SDS011;17980;51.744;7.190;2023-08-30T15:01:18;9.53;;;8.73;;
27145;SDS011;17980;51.744;7.190;2023-08-30T15:03:56;9.90;;;9.03;;
27145;SDS011;17980;51.744;7.190;2023-08-30T15:06:23;7.93;;;7.23;;
27145;SDS011;17980;51.744;7.190;2023-08-30T15:09:06;8.20;;;7.50;;
27145;SDS011;17980;51.744;7.190;2023-08-30T15:11:35;7.53;;;6.57;;
27145;SDS011;17980;51.744;7.190;2023-08-30T15:14:12;6.53;;;5.67;;
27145;SDS011;17980;51.744;7.190;2023-08-30T15:16:39;5.90;;;5.50;;
27145;SDS011;17980;51.744;7.190;2023-08-30T15:19:16;5.63;;;5.13;;